Time;durP1;ratioP1;P1;durP2;ratioP2;P2;SDS_P1;SDS_P2;PMS_P1;PMS_P2;Temp;Humidity;BMP_temperature;BMP_pressure;BME280_temperature;BME280_humidity;BME280_pressure;Samples;Min_cycle;Max_cycle;Signal;HPM_P1;HPM_P2
2022/06/30 04:16:45;;;;;;;14.00;7.97;;;;;;;15.95;100.00;99776.28;5282915;23;20067;-69
2022/06/30 04:19:10;;;;;;;11.63;7.75;;;;;;;15.97;100.00;99782.25;4933500;29;20456;-68
2022/06/30 04:21:36;;;;;;;10.93;7.47;;;;;;;16.00;100.00;99789.88;4917080;29;20059;-69
2022/06/30 04:24:01;;;;;;;11.52;8.20;;;;;;;16.03;100.00;99789.44;4934308;29;20046;-68
2022/06/30 04:26:26;;;;;;;26.42;12.93;;;;;;;16.08;100.00;99789.59;4934142;29;20127;-69
2022/06/30 04:28:52;;;;;;;27.33;16.42;;;;;;;16.11;100.00;99781.13;4932855;29;20041;-68
2022/06/30 04:34:01;;;;;;;14.75;8.50;;;;;;;16.37;100.00;99781.91;4934187;29;20507;-69
2022/06/30 04:36:27;;;;;;;17.77;8.18;;;;;;;16.50;100.00;99785.28;4934074;29;20138;-69
2022/06/30 04:38:52;;;;;;;12.90;9.20;;;;;;;16.60;100.00;99795.50;4933932;29;20124;-70
2022/06/30 04:41:24;;;;;;;10.75;7.68;;;;;;;16.72;100.00;99795.63;4936987;29;20433;-69
2022/06/30 04:43:51;;;;;;;12.15;7.40;;;;;;;16.72;100.00;99787.56;4938106;29;20040;-69
2022/06/30 04:46:17;;;;;;;12.63;9.02;;;;;;;16.75;100.00;99784.41;4937901;29;20042;-69
2022/06/30 04:48:42;;;;;;;17.10;10.82;;;;;;;16.80;100.00;99789.94;4937642;29;20091;-70
2022/06/30 04:51:08;;;;;;;14.68;8.20;;;;;;;16.90;100.00;99786.75;4937846;29;20393;-69
2022/06/30 04:53:34;;;;;;;8.45;6.68;;;;;;;16.97;100.00;99788.28;4938498;29;20437;-70
2022/06/30 04:55:59;;;;;;;11.68;7.15;;;;;;;17.05;100.00;99784.47;4937900;29;20035;-69
2022/06/30 04:58:25;;;;;;;10.27;7.07;;;;;;;17.14;100.00;99779.59;4937605;29;20130;-70
2022/06/30 05:00:51;;;;;;;10.25;7.25;;;;;;;17.24;100.00;99774.50;4937717;29;20041;-69
2022/06/30 05:03:16;;;;;;;10.85;6.53;;;;;;;17.30;100.00;99771.72;4937769;29;20031;-69
2022/06/30 05:05:42;;;;;;;8.77;7.13;;;;;;;17.38;100.00;99770.56;4937405;29;20436;-70
2022/06/30 05:08:07;;;;;;;10.95;7.65;;;;;;;17.50;100.00;99762.53;4937516;29;20039;-69
2022/06/30 05:10:32;;;;;;;10.55;6.63;;;;;;;17.57;100.00;99761.38;4937464;29;20048;-70
2022/06/30 05:12:58;;;;;;;9.77;6.80;;;;;;;17.69;100.00;99761.41;4937533;29;20195;-69
2022/06/30 05:15:23;;;;;;;10.55;6.40;;;;;;;17.80;100.00;99757.94;4937428;29;20032;-70
2022/06/30 05:17:49;;;;;;;8.18;5.63;;;;;;;17.89;100.00;99758.41;4937390;29;20047;-70
2022/06/30 05:20:14;;;;;;;8.82;6.47;;;;;;;18.02;100.00;99762.78;4935764;29;20035;-70
2022/06/30 05:22:39;;;;;;;11.60;6.03;;;;;;;18.13;100.00;99770.03;4937606;29;20044;-70
2022/06/30 05:27:50;;;;;;;9.40;5.97;;;;;;;18.25;99.88;99760.06;4937275;29;20046;-70
2022/06/30 05:30:15;;;;;;;12.05;6.45;;;;;;;18.29;99.79;99760.44;4936895;29;20019;-70
2022/06/30 05:32:42;;;;;;;7.90;5.90;;;;;;;18.32;99.89;99760.78;4937218;29;20047;-69
2022/06/30 05:35:08;;;;;;;6.78;5.60;;;;;;;18.38;99.19;99759.00;4937163;29;20118;-69
2022/06/30 05:37:33;;;;;;;10.45;5.35;;;;;;;18.45;98.39;99748.91;4935792;29;20111;-69
2022/06/30 05:39:59;;;;;;;9.23;6.15;;;;;;;18.52;97.77;99748.78;4935585;29;20477;-70
2022/06/30 05:42:24;;;;;;;7.68;5.75;;;;;;;18.57;96.75;99748.91;4936934;29;20055;-70
2022/06/30 05:44:49;;;;;;;8.32;6.38;;;;;;;18.64;96.09;99755.78;4936796;29;20059;-70
2022/06/30 05:47:15;;;;;;;8.18;5.63;;;;;;;18.70;96.14;99749.47;4936785;29;20135;-70
2022/06/30 05:49:40;;;;;;;9.57;6.18;;;;;;;18.77;95.53;99743.94;4936576;29;20040;-70
2022/06/30 05:52:06;;;;;;;9.25;6.05;;;;;;;18.96;93.60;99747.28;4936584;29;20047;-70
2022/06/30 05:54:31;;;;;;;11.82;6.05;;;;;;;19.01;93.57;99744.69;4936584;29;20083;-70
2022/06/30 05:56:57;;;;;;;7.82;5.85;;;;;;;19.13;92.83;99739.25;4936568;29;20068;-70
2022/06/30 05:59:22;;;;;;;9.98;6.50;;;;;;;19.39;93.18;99737.84;4936368;29;20039;-70
2022/06/30 06:01:48;;;;;;;8.18;5.82;;;;;;;19.82;90.75;99737.25;4936862;29;20039;-70
2022/06/30 06:04:13;;;;;;;7.93;5.50;;;;;;;20.18;86.48;99735.91;4936497;29;20048;-70
2022/06/30 06:06:39;;;;;;;7.65;5.63;;;;;;;20.13;85.91;99749.34;4936495;29;20086;-70
2022/06/30 06:09:05;;;;;;;8.13;5.80;;;;;;;20.05;87.34;99741.66;4936161;29;20067;-59
2022/06/30 06:11:32;;;;;;;7.90;6.47;;;;;;;20.03;87.34;99733.81;4936381;29;20048;-59
2022/06/30 06:13:58;;;;;;;8.20;5.55;;;;;;;20.08;86.67;99743.84;4936418;29;20047;-58
2022/06/30 06:16:24;;;;;;;10.02;6.50;;;;;;;20.10;85.87;99739.03;4936119;29;20051;-55
2022/06/30 06:18:50;;;;;;;10.77;6.15;;;;;;;20.12;85.48;99741.50;4935982;29;20054;-57
2022/06/30 06:21:16;;;;;;;8.02;5.40;;;;;;;20.17;82.65;99739.69;4936148;29;20047;-58
2022/06/30 06:23:41;;;;;;;12.23;6.43;;;;;;;20.23;83.12;99743.28;4936131;29;20062;-54
2022/06/30 06:26:07;;;;;;;11.07;6.15;;;;;;;20.33;82.56;99743.41;4936025;29;20043;-58
2022/06/30 06:31:17;;;;;;;9.35;5.60;;;;;;;20.48;81.69;99753.69;4936133;29;20662;-58
2022/06/30 06:33:44;;;;;;;8.48;6.03;;;;;;;20.55;82.06;99762.44;4936065;29;20233;-59
2022/06/30 06:36:09;;;;;;;;;;;;;;;20.64;82.76;99760.91;4936458;29;20039;-60
2022/06/30 06:38:35;;;;;;;7.90;6.13;;;;;;;20.77;80.33;99755.13;4935808;29;20065;-59
2022/06/30 06:41:00;;;;;;;8.25;5.93;;;;;;;20.84;80.36;99750.34;4934811;29;20401;-61
2022/06/30 06:43:26;;;;;;;12.10;5.75;;;;;;;20.92;79.46;99756.38;4935925;29;20067;-59
2022/06/30 06:45:51;;;;;;;7.38;5.65;;;;;;;21.04;79.83;99751.66;4935621;29;20115;-60
2022/06/30 06:48:17;;;;;;;8.00;5.28;;;;;;;21.17;79.89;99745.84;4935635;29;20047;-58
2022/06/30 06:50:42;;;;;;;7.45;6.05;;;;;;;21.26;80.36;99736.19;4935660;29;20048;-57
2022/06/30 06:53:08;;;;;;;6.88;5.13;;;;;;;21.39;79.63;99735.81;4935805;29;20047;-60
2022/06/30 06:55:33;;;;;;;7.25;5.07;;;;;;;21.57;77.32;99729.19;4935573;29;20039;-60
2022/06/30 06:57:59;;;;;;;13.70;4.95;;;;;;;21.60;75.81;99730.56;4935751;29;20066;-66
2022/06/30 07:00:24;;;;;;;7.93;4.60;;;;;;;21.65;75.89;99726.03;4935287;29;20122;-58
2022/06/30 07:02:49;;;;;;;7.57;4.53;;;;;;;21.79;73.31;99731.00;4934902;29;20528;-59
2022/06/30 07:05:15;;;;;;;7.45;4.57;;;;;;;21.87;74.20;99734.03;4935423;29;20397;-58
2022/06/30 07:07:40;;;;;;;7.13;4.80;;;;;;;21.95;75.04;99738.16;4935420;29;20508;-59
2022/06/30 07:10:07;;;;;;;6.22;4.28;;;;;;;22.06;75.51;99739.06;4935135;29;20054;-58
2022/06/30 07:12:34;;;;;;;6.50;3.92;;;;;;;22.13;72.78;99739.69;4935264;29;20047;-58
2022/06/30 07:14:59;;;;;;;6.78;4.57;;;;;;;22.25;71.89;99736.78;4935346;29;20206;-57
2022/06/30 07:17:25;;;;;;;7.60;4.72;;;;;;;22.45;70.43;99737.69;4934867;29;20063;-53
2022/06/30 07:19:50;;;;;;;4.72;3.95;;;;;;;22.65;69.67;99738.88;4934901;29;20049;-55
2022/06/30 07:22:17;;;;;;;6.63;4.63;;;;;;;22.75;70.29;99738.91;4935056;29;20036;-57
2022/06/30 07:24:42;;;;;;;7.90;4.55;;;;;;;22.89;67.00;99736.56;4934944;29;20035;-54
2022/06/30 07:27:08;;;;;;;5.28;3.83;;;;;;;23.01;66.28;99740.66;4934775;29;20087;-56
2022/06/30 07:29:34;;;;;;;6.68;3.92;;;;;;;23.08;66.49;99734.97;4934571;29;20489;-56
2022/06/30 07:31:59;;;;;;;6.97;4.78;;;;;;;23.25;65.96;99730.13;4934809;29;20039;-58
2022/06/30 07:34:25;;;;;;;5.65;3.95;;;;;;;23.35;66.34;99731.25;4934836;29;20043;-56
2022/06/30 07:36:50;;;;;;;6.78;4.72;;;;;;;23.46;65.16;99736.41;4934818;29;20134;-52
2022/06/30 07:39:16;;;;;;;6.22;4.47;;;;;;;23.47;64.18;99720.91;4933307;29;20075;-55
2022/06/30 07:41:41;;;;;;;5.60;4.13;;;;;;;23.58;64.31;99724.47;4934751;29;20126;-58
2022/06/30 07:44:07;;;;;;;8.23;4.20;;;;;;;23.67;64.57;99728.28;4934735;29;20043;-56
2022/06/30 07:46:32;;;;;;;8.35;4.20;;;;;;;23.77;65.78;99728.31;4933408;29;20052;-56
2022/06/30 07:48:58;;;;;;;6.88;4.13;;;;;;;23.87;65.71;99724.78;4934377;29;20087;-57
2022/06/30 07:51:23;;;;;;;6.10;4.20;;;;;;;24.07;64.04;99724.75;4933397;29;20378;-56
2022/06/30 07:53:49;;;;;;;6.40;4.40;;;;;;;24.15;62.89;99728.81;4934669;29;20036;-57
2022/06/30 07:56:15;;;;;;;6.22;4.50;;;;;;;24.20;64.07;99726.91;4934484;29;20120;-58
2022/06/30 07:58:41;;;;;;;6.72;4.28;;;;;;;24.33;62.66;99729.06;4934548;29;20464;-61
2022/06/30 08:01:07;;;;;;;4.43;4.03;;;;;;;24.47;63.10;99732.03;4934600;29;20044;-61
2022/06/30 08:03:32;;;;;;;6.45;4.60;;;;;;;24.56;63.55;99722.19;4934553;29;20039;-61
2022/06/30 08:05:58;;;;;;;7.47;4.88;;;;;;;24.70;62.76;99725.13;4934375;29;20510;-60
2022/06/30 08:08:23;;;;;;;6.10;4.40;;;;;;;24.75;62.43;99725.09;4934197;29;20040;-61
2022/06/30 08:10:49;;;;;;;7.07;4.63;;;;;;;24.89;62.87;99728.03;4933197;29;20548;-61
2022/06/30 08:13:15;;;;;;;7.35;4.55;;;;;;;25.01;61.42;99723.06;4934474;29;20044;-61
2022/06/30 08:15:40;;;;;;;9.57;4.05;;;;;;;25.19;58.81;99715.38;4933206;29;20036;-60
2022/06/30 08:18:07;;;;;;;5.05;3.60;;;;;;;25.27;60.92;99715.56;4934382;29;20054;-61
2022/06/30 08:20:33;;;;;;;6.15;3.63;;;;;;;25.38;58.61;99706.25;4934147;29;20051;-61
2022/06/30 08:22:59;;;;;;;4.85;3.80;;;;;;;25.57;59.72;99709.09;4934289;29;20055;-61
2022/06/30 08:25:25;;;;;;;6.50;4.15;;;;;;;25.67;59.06;99708.19;4934148;29;20035;-62
2022/06/30 08:27:50;;;;;;;4.95;3.85;;;;;;;25.76;60.19;99702.97;4934228;29;20512;-61
2022/06/30 08:30:16;;;;;;;6.45;4.32;;;;;;;25.89;57.51;99694.13;4933800;29;20055;-59
2022/06/30 08:32:41;;;;;;;8.88;4.50;;;;;;;26.12;58.54;99698.78;4934075;29;20122;-61
2022/06/30 08:35:07;;;;;;;6.53;4.25;;;;;;;26.22;57.97;99693.22;4934037;29;20082;-60
2022/06/30 08:37:32;;;;;;;5.28;4.15;;;;;;;26.41;57.68;99684.31;4934009;29;20040;-61
2022/06/30 08:42:42;;;;;;;4.63;4.10;;;;;;;26.77;56.14;99677.28;4934067;29;20039;-61
2022/06/30 08:45:14;;;;;;;5.60;4.00;;;;;;;26.83;56.65;99678.03;4933881;29;20126;-61
2022/06/30 08:47:41;;;;;;;8.00;4.30;;;;;;;26.85;56.15;99675.00;4934278;29;20115;-60
2022/06/30 08:50:09;;;;;;;5.82;3.58;;;;;;;27.07;56.09;99678.00;4932669;29;20040;-61
2022/06/30 08:52:52;;;;;;;8.48;4.70;;;;;;;27.15;57.25;99680.06;4934051;29;20106;-61
2022/06/30 08:55:20;;;;;;;5.95;4.25;;;;;;;27.37;56.54;99678.63;4933960;29;20046;-60
2022/06/30 08:57:47;;;;;;;7.85;4.60;;;;;;;27.51;56.01;99677.56;4934055;29;20047;-60
2022/06/30 09:00:14;;;;;;;;;;;;;;;27.62;56.46;99677.38;4934099;29;20043;-60
2022/06/30 09:02:39;;;;;;;;;;;;;;;27.81;56.09;99668.03;4934484;29;19937;-60
2022/06/30 09:05:06;;;;;;;10.23;4.60;;;;;;;27.90;53.79;99681.84;4933840;29;20388;-61
2022/06/30 09:07:31;;;;;;;6.83;4.43;;;;;;;28.10;52.25;99673.28;4933947;29;20043;-59
2022/06/30 09:09:57;;;;;;;7.72;4.50;;;;;;;28.26;51.86;99675.69;4933670;29;20040;-60
2022/06/30 09:12:22;;;;;;;5.75;4.50;;;;;;;28.60;52.94;99672.56;4933845;29;20048;-60
2022/06/30 09:14:49;;;;;;;18.05;5.40;;;;;;;28.64;51.28;99670.84;4933776;29;20046;-60
2022/06/30 09:17:20;;;;;;;9.27;4.88;;;;;;;28.84;52.28;99673.13;4933608;29;20485;-61
2022/06/30 09:19:51;;;;;;;7.53;4.65;;;;;;;29.05;52.34;99667.22;4933574;29;20055;-61
2022/06/30 09:22:16;;;;;;;6.63;3.95;;;;;;;29.24;51.74;99667.84;4933975;29;20150;-61
2022/06/30 09:24:43;;;;;;;6.18;3.88;;;;;;;29.45;46.98;99657.19;4933657;29;20118;-60
2022/06/30 09:27:20;;;;;;;5.53;3.75;;;;;;;29.53;48.49;99663.88;4936152;29;20056;-61
2022/06/30 09:29:46;;;;;;;4.00;3.58;;;;;;;29.42;45.04;99655.88;4936943;29;20039;-61
2022/06/30 09:32:12;;;;;;;6.03;3.45;;;;;;;29.33;44.83;99652.25;4935909;29;20042;-61
2022/06/30 09:34:38;;;;;;;5.05;3.60;;;;;;;29.35;43.59;99644.56;4937151;29;20036;-61
2022/06/30 09:37:14;;;;;;;6.57;3.38;;;;;;;29.67;43.14;99651.72;4937050;29;20043;-61
2022/06/30 09:39:44;;;;;;;6.40;3.38;;;;;;;29.75;41.71;99652.88;4936747;29;20043;-61
2022/06/30 09:42:10;;;;;;;7.45;3.40;;;;;;;29.86;45.34;99645.97;4936776;29;20409;-60
2022/06/30 09:44:36;;;;;;;7.70;3.50;;;;;;;30.20;43.01;99645.38;4936827;29;20027;-60
2022/06/30 09:47:08;;;;;;;8.32;3.35;;;;;;;30.31;42.49;99647.81;4936903;29;20589;-61
2022/06/30 09:49:42;;;;;;;3.42;3.10;;;;;;;30.58;41.55;99649.47;4936425;29;20040;-62
2022/06/30 09:52:22;;;;;;;3.78;2.60;;;;;;;30.59;41.42;99640.13;4936821;29;20393;-61
2022/06/30 09:54:59;;;;;;;3.40;3.10;;;;;;;30.63;42.69;99632.84;4936845;29;20040;-61
2022/06/30 09:57:36;;;;;;;4.68;3.08;;;;;;;30.74;42.13;99639.69;4936802;29;20043;-60
2022/06/30 10:00:10;;;;;;;6.20;3.28;;;;;;;30.87;41.65;99633.22;4936453;29;20493;-61
2022/06/30 10:02:41;;;;;;;4.80;3.13;;;;;;;30.74;40.33;99625.94;4936821;29;20064;-61
2022/06/30 10:05:09;;;;;;;3.72;2.85;;;;;;;30.83;42.65;99632.25;4936601;29;20040;-60
2022/06/30 10:07:37;;;;;;;4.72;3.28;;;;;;;31.06;42.54;99625.47;4936607;29;20055;-62
2022/06/30 10:10:15;;;;;;;6.72;3.50;;;;;;;31.42;39.70;99627.06;4936158;29;20046;-60
2022/06/30 10:12:41;;;;;;;5.63;3.10;;;;;;;31.34;41.37;99614.13;4936570;29;20038;-61
2022/06/30 10:15:08;;;;;;;4.90;2.95;;;;;;;31.90;41.35;99616.91;4936548;29;20090;-61
2022/06/30 10:17:40;;;;;;;3.97;2.78;;;;;;;32.02;40.58;99612.34;4936371;29;20520;-61
2022/06/30 10:20:06;;;;;;;3.80;3.00;;;;;;;32.33;41.59;99617.53;4936244;29;20516;-56
2022/06/30 10:22:32;;;;;;;3.20;2.90;;;;;;;32.52;38.42;99613.53;4936336;29;20046;-60
2022/06/30 10:24:57;;;;;;;3.50;2.97;;;;;;;32.61;37.79;99608.78;4936377;29;20039;-60
2022/06/30 10:27:25;;;;;;;4.73;2.70;;;;;;;33.03;36.81;99606.81;4936337;29;20040;-61
2022/06/30 10:30:00;;;;;;;5.93;3.28;;;;;;;33.22;36.02;99607.13;4936342;29;20039;-61
2022/06/30 10:32:54;;;;;;;4.03;3.03;;;;;;;33.05;38.92;99607.28;4934921;29;20047;-61
2022/06/30 10:35:44;;;;;;;3.63;3.08;;;;;;;32.95;37.07;99604.94;4935949;29;20036;-61
2022/06/30 10:38:16;;;;;;;4.57;3.08;;;;;;;33.14;38.41;99607.22;4934839;29;20046;-59
2022/06/30 10:41:10;;;;;;;4.03;2.42;;;;;;;33.53;37.13;99605.88;4935696;29;20487;-61
2022/06/30 10:44:04;;;;;;;5.10;2.85;;;;;;;33.54;36.82;99607.47;4935897;29;20039;-60
2022/06/30 10:46:30;;;;;;;3.30;2.72;;;;;;;33.75;36.12;99615.69;4934397;29;20055;-62
2022/06/30 10:48:55;;;;;;;5.17;3.00;;;;;;;33.82;35.26;99615.91;4935364;29;20043;-61
2022/06/30 10:51:23;;;;;;;2.97;2.70;;;;;;;33.89;35.95;99620.88;4935685;29;20051;-59
2022/06/30 10:53:58;;;;;;;3.80;2.80;;;;;;;33.96;34.16;99607.31;4935568;29;20046;-61
2022/06/30 10:56:48;;;;;;;4.22;2.90;;;;;;;33.77;36.44;99602.31;4935548;29;20039;-59
2022/06/30 10:59:15;;;;;;;4.85;2.80;;;;;;;33.72;36.26;99606.13;4935290;29;20041;-59
2022/06/30 11:02:06;;;;;;;3.70;2.63;;;;;;;33.32;36.11;99610.59;4935628;29;20044;-60
2022/06/30 11:04:32;;;;;;;3.35;3.05;;;;;;;32.85;37.38;99606.13;4925041;29;20047;-61
2022/06/30 11:07:01;;;;;;;3.28;2.88;;;;;;;32.52;36.35;99595.03;4935509;29;20087;-62
2022/06/30 11:09:44;;;;;;;5.97;2.90;;;;;;;31.92;36.90;99595.34;4933932;29;20125;-61
2022/06/30 11:12:12;;;;;;;4.32;2.85;;;;;;;32.77;37.63;99592.41;4935256;29;20633;-61
2022/06/30 11:14:40;;;;;;;3.85;2.90;;;;;;;32.91;34.62;99588.25;4935430;29;20023;-60
2022/06/30 11:17:17;;;;;;;3.40;2.72;;;;;;;33.25;34.07;99582.75;4935138;29;20051;-61
2022/06/30 11:19:42;;;;;;;3.08;2.58;;;;;;;34.14;34.96;99578.31;4935097;29;20046;-60
2022/06/30 11:22:08;;;;;;;5.13;2.50;;;;;;;33.94;34.55;99585.56;4935254;29;20475;-61
2022/06/30 11:24:39;;;;;;;3.73;2.73;;;;;;;34.33;33.05;99572.19;4935100;29;20102;-62
2022/06/30 11:27:17;;;;;;;2.50;2.25;;;;;;;34.88;32.67;99575.38;4935039;29;20134;-61
2022/06/30 11:29:45;;;;;;;2.80;2.45;;;;;;;35.45;31.71;99568.72;4933478;29;20078;-61
2022/06/30 11:32:11;;;;;;;2.50;2.30;;;;;;;35.06;31.80;99566.47;4934913;29;20046;-61
2022/06/30 11:34:40;;;;;;;2.80;2.60;;;;;;;35.51;33.94;99567.28;4934926;29;20410;-61
2022/06/30 11:37:06;;;;;;;4.35;3.20;;;;;;;34.74;31.71;99560.00;4934703;29;20038;-62
2022/06/30 11:39:31;;;;;;;4.75;2.67;;;;;;;35.32;32.76;99554.09;4934609;29;20043;-61
2022/06/30 11:42:03;;;;;;;2.63;2.23;;;;;;;35.91;31.90;99563.53;4933645;29;20441;-61
2022/06/30 11:44:31;;;;;;;4.70;2.50;;;;;;;35.98;32.25;99558.16;4934752;29;20039;-62
2022/06/30 11:47:01;;;;;;;4.07;2.65;;;;;;;35.64;30.74;99560.50;4934893;29;20129;-61
2022/06/30 11:49:44;;;;;;;3.20;2.60;;;;;;;35.04;31.26;99545.84;4933025;29;20039;-62
2022/06/30 11:52:10;;;;;;;3.95;2.80;;;;;;;35.33;31.88;99542.66;4933461;29;20050;-61
2022/06/30 11:54:36;;;;;;;4.77;2.63;;;;;;;36.18;32.00;99547.94;4934616;29;20118;-60
2022/06/30 11:57:01;;;;;;;3.45;2.20;;;;;;;35.31;30.95;99544.19;4933577;29;20043;-61
2022/06/30 11:59:27;;;;;;;3.17;2.60;;;;;;;34.98;33.03;99539.78;4929234;29;20123;-59
2022/06/30 12:02:01;;;;;;;5.30;2.88;;;;;;;35.79;31.30;99540.28;4901559;29;20048;-60
2022/06/30 12:04:27;;;;;;;4.35;2.72;;;;;;;35.65;30.87;99528.88;4910780;29;20047;-58
2022/06/30 12:06:53;;;;;;;4.30;2.70;;;;;;;35.68;31.75;99533.72;4915011;29;20048;-57
2022/06/30 12:09:18;;;;;;;2.58;2.38;;;;;;;35.92;31.92;99521.63;4916563;29;20107;-60
2022/06/30 12:11:45;;;;;;;2.60;2.40;;;;;;;35.96;29.96;99530.84;4894426;29;20039;-61
2022/06/30 12:14:11;;;;;;;3.95;2.42;;;;;;;35.91;30.74;99530.31;4922849;29;20494;-60
2022/06/30 12:16:37;;;;;;;2.97;2.17;;;;;;;35.38;30.45;99521.44;4909486;29;20043;-60
2022/06/30 12:19:02;;;;;;;3.73;2.37;;;;;;;36.45;31.13;99532.31;4923946;29;20043;-60
2022/06/30 12:21:28;;;;;;;6.63;2.63;;;;;;;35.86;31.91;99515.56;4925086;29;20397;-58
2022/06/30 12:23:54;;;;;;;2.87;2.20;;;;;;;36.75;30.17;99518.69;4922454;29;20043;-61
2022/06/30 12:26:20;;;;;;;2.75;2.15;;;;;;;36.63;30.20;99511.31;4914629;29;20519;-60
2022/06/30 12:28:58;;;;;;;3.53;2.30;;;;;;;36.71;30.50;99507.50;4898980;29;20048;-60
2022/06/30 12:31:30;;;;;;;2.75;2.40;;;;;;;37.04;30.71;99509.78;4929868;29;20128;-60
2022/06/30 12:33:57;;;;;;;3.35;2.70;;;;;;;37.06;29.23;99507.44;4933604;29;20042;-60
2022/06/30 12:36:28;;;;;;;3.75;2.40;;;;;;;36.47;29.78;99496.72;4917984;29;20035;-61
2022/06/30 12:38:54;;;;;;;4.50;2.50;;;;;;;36.63;30.35;99505.75;4902483;29;20063;-60
2022/06/30 12:41:22;;;;;;;3.33;2.73;;;;;;;36.93;28.52;99509.56;4932953;29;20094;-60
2022/06/30 12:43:49;;;;;;;4.05;2.53;;;;;;;37.28;28.93;99511.38;4934183;29;20047;-61
2022/06/30 12:46:18;;;;;;;3.53;2.40;;;;;;;37.77;29.03;99501.50;4934001;29;20450;-60
2022/06/30 12:48:46;;;;;;;4.70;2.53;;;;;;;37.78;28.24;99506.69;4933860;29;20039;-64
2022/06/30 12:51:35;;;;;;;5.63;2.50;;;;;;;37.38;28.97;99502.47;4934069;29;20052;-61
2022/06/30 12:54:02;;;;;;;4.28;2.20;;;;;;;36.57;28.07;99502.47;4924483;29;20091;-62
2022/06/30 12:56:28;;;;;;;2.45;2.15;;;;;;;36.17;29.38;99502.00;4933998;29;20051;-62
2022/06/30 12:58:59;;;;;;;5.53;2.47;;;;;;;36.83;28.46;99506.53;4933770;29;20040;-61
2022/06/30 13:01:31;;;;;;;4.47;2.22;;;;;;;37.12;29.62;99500.41;4935511;29;20549;-62
2022/06/30 13:04:00;;;;;;;2.67;2.47;;;;;;;37.14;29.58;99508.34;4937638;29;20063;-62
2022/06/30 13:06:29;;;;;;;3.10;2.50;;;;;;;37.48;27.23;99503.81;4937443;29;20126;-62
2022/06/30 13:08:55;;;;;;;4.07;2.08;;;;;;;37.46;27.69;99495.06;4937312;29;20032;-61
2022/06/30 13:11:26;;;;;;;3.13;2.33;;;;;;;37.71;26.92;99492.69;4937664;29;20051;-62
2022/06/30 13:13:54;;;;;;;2.40;2.20;;;;;;;37.21;27.59;99500.16;4937741;29;20437;-61
2022/06/30 13:16:20;;;;;;;5.78;2.70;;;;;;;37.22;28.27;99501.75;4936083;29;20024;-60
2022/06/30 13:18:48;;;;;;;3.92;2.30;;;;;;;37.21;28.07;99498.19;4937223;29;20031;-63
2022/06/30 13:21:17;;;;;;;2.72;2.22;;;;;;;36.56;27.91;99498.09;4937426;29;20072;-62
2022/06/30 13:23:43;;;;;;;3.53;2.30;;;;;;;35.94;29.40;99486.06;4936247;29;20046;-63
2022/06/30 13:26:09;;;;;;;6.35;2.80;;;;;;;35.75;30.31;99488.75;4937752;29;20032;-61
2022/06/30 13:28:35;;;;;;;3.90;2.50;;;;;;;35.03;30.53;99478.66;4937132;29;20143;-61
2022/06/30 13:31:01;;;;;;;4.20;2.37;;;;;;;35.02;31.86;99468.75;4937339;29;20122;-62
2022/06/30 13:33:26;;;;;;;2.80;2.60;;;;;;;34.16;32.32;99472.97;4937397;29;20032;-59
2022/06/30 13:35:51;;;;;;;4.53;2.43;;;;;;;34.40;33.62;99464.59;4937210;29;20074;-62
2022/06/30 13:38:17;;;;;;;4.43;2.40;;;;;;;34.40;34.64;99452.75;4937165;29;20047;-61
2022/06/30 13:40:42;;;;;;;4.63;2.87;;;;;;;34.33;33.03;99458.88;4937064;29;20048;-62
2022/06/30 13:43:08;;;;;;;2.80;2.50;;;;;;;33.91;34.56;99450.94;4937191;29;20035;-61
2022/06/30 13:45:34;;;;;;;3.93;2.67;;;;;;;34.12;33.93;99444.44;4936974;29;20482;-61
2022/06/30 13:47:59;;;;;;;5.67;2.93;;;;;;;33.71;33.62;99441.63;4937116;29;20051;-59
2022/06/30 13:50:24;;;;;;;3.73;2.50;;;;;;;33.19;33.15;99433.19;4936720;29;20073;-64
2022/06/30 13:52:50;;;;;;;4.83;4.10;;;;;;;32.87;33.60;99435.69;4936896;29;20630;-58
2022/06/30 13:55:15;;;;;;;3.83;2.63;;;;;;;33.06;34.86;99440.66;4936769;29;20051;-59
2022/06/30 13:57:41;;;;;;;4.00;2.30;;;;;;;33.15;34.76;99437.78;4936790;29;20394;-58
2022/06/30 14:00:07;;;;;;;2.63;2.20;;;;;;;33.15;34.41;99437.78;4936554;29;20035;-60
2022/06/30 14:02:34;;;;;;;6.13;2.75;;;;;;;32.82;34.26;99440.56;4936825;29;20040;-61
2022/06/30 14:04:59;;;;;;;5.07;2.40;;;;;;;32.99;35.35;99437.63;4936693;29;20394;-61
2022/06/30 14:07:26;;;;;;;5.87;2.50;;;;;;;33.01;34.35;99445.59;4936593;29;20055;-60
2022/06/30 14:09:52;;;;;;;;;;;;;;;32.85;34.08;99437.91;4936753;29;20472;-58
2022/06/30 14:12:19;;;;;;;3.60;2.78;;;;;;;32.60;34.52;99439.00;4936498;29;19937;-62
2022/06/30 14:14:44;;;;;;;3.10;2.50;;;;;;;32.71;36.51;99436.63;4936607;29;20082;-61
2022/06/30 14:17:09;;;;;;;2.93;2.43;;;;;;;32.52;35.44;99428.88;4936348;29;20124;-61
2022/06/30 14:19:35;;;;;;;4.67;2.50;;;;;;;32.33;34.99;99430.16;4936162;29;20147;-59
2022/06/30 14:22:00;;;;;;;4.13;2.87;;;;;;;32.57;35.22;99423.16;4936395;29;20047;-59
2022/06/30 14:24:26;;;;;;;4.47;2.57;;;;;;;32.71;34.68;99417.31;4936253;29;20042;-59
2022/06/30 14:26:52;;;;;;;4.27;2.70;;;;;;;32.63;34.99;99419.03;4936319;29;20130;-61
2022/06/30 14:29:17;;;;;;;3.77;2.60;;;;;;;32.43;35.63;99414.38;4935855;29;20119;-60
2022/06/30 14:31:43;;;;;;;5.50;2.50;;;;;;;32.54;35.41;99415.53;4934938;29;20039;-57
2022/06/30 14:34:10;;;;;;;3.20;2.57;;;;;;;32.51;35.11;99416.22;4936048;29;20040;-59
2022/06/30 14:36:36;;;;;;;4.82;2.58;;;;;;;32.56;34.96;99410.50;4936208;29;20393;-61
2022/06/30 14:39:03;;;;;;;3.77;2.37;;;;;;;32.72;34.91;99402.41;4935862;29;20413;-61
2022/06/30 14:44:12;;;;;;;4.47;2.40;;;;;;;32.90;34.82;99398.31;4936046;29;20058;-61
2022/06/30 14:46:38;;;;;;;3.35;2.28;;;;;;;32.51;33.29;99406.00;4935850;29;20481;-60
2022/06/30 14:49:04;;;;;;;4.97;2.80;;;;;;;32.62;33.81;99412.72;4935713;29;20442;-59
2022/06/30 14:51:30;;;;;;;6.77;4.37;;;;;;;32.60;33.55;99417.78;4935834;29;20047;-61
2022/06/30 14:53:55;;;;;;;5.10;3.17;;;;;;;32.67;33.81;99415.25;4935901;29;20481;-60
2022/06/30 14:56:21;;;;;;;8.10;7.30;;;;;;;32.61;34.89;99415.81;4935527;29;20127;-61
2022/06/30 14:58:46;;;;;;;4.70;3.60;;;;;;;32.68;34.95;99416.06;4935439;29;20074;-61
2022/06/30 15:01:12;;;;;;;3.53;3.10;;;;;;;32.79;35.49;99417.22;4935598;29;20066;-60
2022/06/30 15:03:37;;;;;;;5.10;4.10;;;;;;;32.75;34.04;99418.28;4935665;29;20058;-62
2022/06/30 15:06:04;;;;;;;4.50;2.60;;;;;;;32.58;34.63;99413.72;4935284;29;20055;-61
2022/06/30 15:08:29;;;;;;;3.80;3.40;;;;;;;32.44;34.63;99414.03;4935314;29;20106;-59
2022/06/30 15:10:55;;;;;;;2.83;2.47;;;;;;;32.68;35.11;99424.34;4935568;29;20031;-61
2022/06/30 15:13:21;;;;;;;3.53;2.27;;;;;;;32.56;36.10;99421.53;4935352;29;20086;-62
2022/06/30 15:15:47;;;;;;;4.20;2.20;;;;;;;32.41;35.28;99420.22;4935111;29;20054;-61
2022/06/30 15:18:13;;;;;;;2.73;2.47;;;;;;;32.18;36.45;99438.22;4935209;29;20043;-61
2022/06/30 15:20:39;;;;;;;4.50;2.20;;;;;;;31.23;38.37;99454.13;4933966;29;20044;-60
2022/06/30 15:25:50;;;;;;;5.40;2.55;;;;;;;30.71;39.44;99450.69;4935067;29;20062;-59
2022/06/30 15:28:16;;;;;;;2.30;2.10;;;;;;;30.36;39.68;99452.63;4935057;29;20035;-61
2022/06/30 15:30:41;;;;;;;3.13;2.47;;;;;;;30.16;39.98;99451.34;4935039;29;20453;-60
2022/06/30 15:33:07;;;;;;;5.18;3.22;;;;;;;29.95;41.07;99449.19;4935137;29;20114;-61
2022/06/30 15:35:32;;;;;;;4.78;2.60;;;;;;;29.71;41.53;99440.59;4934925;29;20050;-61
2022/06/30 15:37:58;;;;;;;4.05;2.50;;;;;;;29.45;42.12;99451.47;4935026;29;20036;-58
2022/06/30 15:40:23;;;;;;;3.97;2.60;;;;;;;29.14;40.97;99446.81;4934705;29;20044;-60
2022/06/30 15:42:49;;;;;;;8.63;2.85;;;;;;;28.96;42.01;99444.31;4934911;29;20043;-61
2022/06/30 15:45:23;;;;;;;3.40;2.55;;;;;;;28.86;42.46;99446.16;4934815;29;20090;-61
2022/06/30 15:47:52;;;;;;;5.18;2.20;;;;;;;28.70;42.66;99434.00;4934982;29;20139;-58
2022/06/30 15:50:18;;;;;;;3.63;2.28;;;;;;;28.61;43.10;99433.91;4934621;29;20032;-59
2022/06/30 15:52:44;;;;;;;4.00;2.55;;;;;;;28.50;42.95;99432.56;4935108;29;20417;-59
2022/06/30 15:55:10;;;;;;;2.97;2.20;;;;;;;28.40;43.71;99410.88;4934656;29;20119;-60
2022/06/30 15:57:36;;;;;;;5.20;2.83;;;;;;;28.32;43.65;99400.69;4933648;29;20054;-57
2022/06/30 16:00:03;;;;;;;5.90;2.88;;;;;;;28.37;42.36;99387.69;4934805;29;20035;-59
2022/06/30 16:02:37;;;;;;;4.13;3.53;;;;;;;28.40;43.09;99391.72;4934776;29;20036;-61
2022/06/30 16:05:03;;;;;;;5.53;3.33;;;;;;;28.34;41.99;99390.22;4934425;29;20040;-61